createdAt,value
2022-08-07T00:02:36.031Z,99797.09
2022-08-07T00:04:11.226Z,99809.44
2022-08-07T00:06:51.562Z,99807.13
2022-08-07T00:09:22.654Z,99811.88
2022-08-07T00:11:55.959Z,99811.09
2022-08-07T00:14:31.250Z,99805.97
2022-08-07T00:17:02.559Z,99797.88
2022-08-07T00:20:00.046Z,99795.06
2022-08-07T00:22:24.559Z,99797.09
2022-08-07T00:25:05.700Z,99787.38
2022-08-07T00:27:52.643Z,99791.00
2022-08-07T00:30:27.289Z,99793.81
2022-08-07T00:32:57.592Z,99795.44
2022-08-07T00:35:30.027Z,99791.78
2022-08-07T00:37:59.646Z,99793.44
2022-08-07T00:40:39.604Z,99794.59
2022-08-07T00:43:59.683Z,99791.00
2022-08-07T00:45:59.372Z,99790.84
2022-08-07T00:48:32.039Z,99797.09
2022-08-07T00:51:03.085Z,99802.56
2022-08-07T00:53:38.912Z,99800.91
2022-08-07T00:56:18.824Z,99794.50
2022-08-07T00:58:49.753Z,99802.09
2022-08-07T01:01:20.488Z,99801.13
2022-08-07T01:03:56.440Z,99799.47
2022-08-07T01:06:29.045Z,99799.47
2022-08-07T01:09:01.095Z,99798.63
2022-08-07T01:12:27.578Z,99788.44
2022-08-07T01:14:21.493Z,99789.91
2022-08-07T01:16:57.752Z,99789.44
2022-08-07T01:19:27.959Z,99786.97
2022-08-07T01:22:04.091Z,99783.69
2022-08-07T01:24:38.189Z,99784.84
2022-08-07T01:27:19.744Z,99789.59
2022-08-07T01:29:50.772Z,99789.13
2022-08-07T01:32:19.885Z,99791.44
2022-08-07T01:34:52.097Z,99792.09
2022-08-07T01:37:22.757Z,99797.22
2022-08-07T01:39:51.668Z,99788.69
2022-08-07T01:42:37.771Z,99791.00
2022-08-07T01:45:17.752Z,99799.91
2022-08-07T01:48:20.647Z,99806.94
2022-08-07T01:50:37.961Z,99790.81
2022-08-07T01:53:20.846Z,99793.44
2022-08-07T01:55:56.584Z,99801.69
2022-08-07T01:58:33.188Z,99798.06
2022-08-07T02:01:25.346Z,99783.94
2022-08-07T02:04:04.399Z,99791.34
2022-08-07T02:06:35.658Z,99787.72
2022-08-07T02:09:11.652Z,99789.50
2022-08-07T02:12:17.806Z,99787.06
2022-08-07T02:14:51.344Z,99795.78
2022-08-07T02:17:27.484Z,99788.22
2022-08-07T02:20:04.874Z,99780.97
2022-08-07T02:22:41.412Z,99784.09
2022-08-07T02:25:17.624Z,99783.28
2022-08-07T02:27:52.122Z,99789.72
2022-08-07T02:30:22.083Z,99799.25
2022-08-07T02:33:00.679Z,99787.22
2022-08-07T02:36:27.112Z,99792.81
2022-08-07T02:38:32.685Z,99778.81
2022-08-07T02:41:04.433Z,99778.81
2022-08-07T02:43:34.590Z,99776.84
2022-08-07T02:46:07.068Z,99782.44
2022-08-07T02:48:35.701Z,99779.66
2022-08-07T02:51:29.247Z,99780.81
2022-08-07T02:54:01.336Z,99779.16
2022-08-07T02:56:34.128Z,99771.91
2022-08-07T02:59:05.872Z,99770.28
2022-08-07T03:01:35.427Z,99764.69
2022-08-07T03:04:07.826Z,99763.88
2022-08-07T03:06:44.736Z,99767.84
2022-08-07T03:09:43.329Z,99759.75
2022-08-07T03:12:14.205Z,99755.50
2022-08-07T03:14:52.968Z,99751.84
2022-08-07T03:17:22.220Z,99747.41
2022-08-07T03:19:54.724Z,99746.59
2022-08-07T03:22:29.652Z,99752.19
2022-08-07T03:25:00.842Z,99745.44
2022-08-07T03:27:58.828Z,99746.59
2022-08-07T03:30:20.689Z,99737.72
2022-08-07T03:32:59.048Z,99744.47
2022-08-07T03:35:43.757Z,99744.13
2022-08-07T03:38:21.431Z,99730.63
2022-08-07T03:41:00.480Z,99735.06
2022-08-07T03:43:32.215Z,99737.53
2022-08-07T03:46:03.616Z,99742.00
2022-08-07T03:49:01.924Z,99740.50
2022-08-07T03:51:30.733Z,99751.34
2022-08-07T03:54:36.343Z,99733.75
2022-08-07T03:57:07.118Z,99735.75
2022-08-07T03:59:46.538Z,99741.81
2022-08-07T04:02:27.369Z,99740.66
2022-08-07T04:04:56.014Z,99745.94
2022-08-07T04:07:26.031Z,99754.81
2022-08-07T04:10:05.911Z,99754.47
2022-08-07T04:12:44.336Z,99751.34
2022-08-07T04:15:14.961Z,99750.19
2022-08-07T04:18:31.812Z,99764.31
2022-08-07T04:20:35.360Z,99746.88
2022-08-07T04:23:06.133Z,99752.16
2022-08-07T04:25:40.841Z,99754.97
2022-08-07T04:28:13.540Z,99758.56
2022-08-07T04:30:55.512Z,99754.13
2022-08-07T04:33:26.818Z,99768.63
2022-08-07T04:35:56.270Z,99770.25
2022-08-07T04:38:27.861Z,99767.44
2022-08-07T04:40:57.434Z,99771.41
2022-08-07T04:44:09.888Z,99766.66
2022-08-07T04:46:34.844Z,99765.34
2022-08-07T04:49:18.378Z,99774.56
2022-08-07T04:52:04.735Z,99764.50
2022-08-07T04:54:41.047Z,99766.97
2022-08-07T04:58:11.334Z,99763.38
2022-08-07T05:00:30.161Z,99763.03
2022-08-07T05:03:17.203Z,99767.63
2022-08-07T05:06:19.709Z,99769.41
2022-08-07T05:09:01.168Z,99765.97
2022-08-07T05:11:58.774Z,99772.38
2022-08-07T05:14:54.209Z,99764.78
2022-08-07T05:18:00.368Z,99766.09
2022-08-07T05:20:15.888Z,99770.75
2022-08-07T05:22:48.853Z,99773.72
2022-08-07T05:25:25.546Z,99764.78
2022-08-07T05:28:20.519Z,99767.72
2022-08-07T05:30:54.344Z,99767.72
2022-08-07T05:33:24.882Z,99775.00
2022-08-07T05:35:57.465Z,99780.91
2022-08-07T05:39:00.839Z,99773.03
2022-08-07T05:41:18.232Z,99786.66
2022-08-07T05:44:08.787Z,99785.50
2022-08-07T05:46:41.349Z,99784.00
2022-08-07T05:49:14.351Z,99780.06
2022-08-07T05:51:46.650Z,99788.47
2022-08-07T05:54:44.264Z,99786.16
2022-08-07T05:57:07.382Z,99778.41
2022-08-07T05:59:55.803Z,99777.72
2022-08-07T06:02:30.815Z,99781.50
2022-08-07T06:05:04.408Z,99784.63
2022-08-07T06:08:29.508Z,99784.09
2022-08-07T06:10:24.599Z,99784.38
2022-08-07T06:12:53.129Z,99782.06
2022-08-07T06:15:39.015Z,99776.59
2022-08-07T06:18:13.902Z,99777.25
2022-08-07T06:20:50.699Z,99780.03
2022-08-07T06:24:38.179Z,99782.56
2022-08-07T06:26:27.247Z,99783.97
2022-08-07T06:29:01.148Z,99787.81
2022-08-07T06:31:46.974Z,99783.09
2022-08-07T06:34:19.734Z,99787.19
2022-08-07T06:36:52.061Z,99775.53
2022-08-07T06:40:16.130Z,99789.47
2022-08-07T06:42:19.282Z,99779.13
2022-08-07T06:44:51.130Z,99774.41
2022-08-07T06:47:21.128Z,99775.59
2022-08-07T06:49:52.135Z,99774.69
2022-08-07T06:52:35.525Z,99779.53
2022-08-07T06:55:31.289Z,99784.72
2022-08-07T06:58:02.280Z,99786.72
2022-08-07T07:00:38.278Z,99781.81
2022-08-07T07:03:08.633Z,99777.34
2022-08-07T07:06:04.395Z,99781.09
2022-08-07T07:08:33.269Z,99777.13
2022-08-07T07:11:13.771Z,99776.94
2022-08-07T07:14:01.417Z,99776.22
2022-08-07T07:16:50.061Z,99770.38
2022-08-07T07:19:57.223Z,99775.84
2022-08-07T07:22:36.772Z,99768.72
2022-08-07T07:26:33.145Z,99776.22
2022-08-07T07:28:29.460Z,99770.69
2022-08-07T07:31:07.921Z,99774.09
2022-08-07T07:33:39.498Z,99780.41
2022-08-07T07:36:12.752Z,99783.69
2022-08-07T07:38:46.220Z,99767.63
2022-08-07T07:41:19.330Z,99762.81
2022-08-07T07:44:17.239Z,99765.72
2022-08-07T07:46:55.348Z,99764.66
2022-08-07T07:50:34.944Z,99762.00
2022-08-07T07:52:22.046Z,99759.66
2022-08-07T07:54:52.498Z,99755.66
2022-08-07T07:57:51.560Z,99758.91
2022-08-07T08:00:28.808Z,99764.22
2022-08-07T08:03:06.162Z,99761.69
2022-08-07T08:05:50.875Z,99766.38
2022-08-07T08:08:35.112Z,99766.22
2022-08-07T08:11:16.029Z,99767.78
2022-08-07T08:13:52.910Z,99765.38
2022-08-07T08:16:31.047Z,99762.81
2022-08-07T08:19:09.873Z,99760.56
2022-08-07T08:22:07.828Z,99763.00
2022-08-07T08:25:09.504Z,99767.19
2022-08-07T08:27:57.178Z,99764.03
2022-08-07T08:30:34.844Z,99757.38
2022-08-07T08:33:10.357Z,99762.03
2022-08-07T08:35:50.740Z,99756.78
2022-08-07T08:38:25.882Z,99756.03
2022-08-07T08:41:06.431Z,99755.69
2022-08-07T08:43:55.866Z,99756.97
2022-08-07T08:46:38.520Z,99751.44
2022-08-07T08:49:18.231Z,99757.13
2022-08-07T08:52:13.694Z,99755.25
2022-08-07T08:54:50.439Z,99755.06
2022-08-07T08:57:36.096Z,99751.84
2022-08-07T09:00:08.499Z,99749.41
2022-08-07T09:02:52.410Z,99749.41
2022-08-07T09:05:49.321Z,99747.50
2022-08-07T09:08:34.242Z,99747.75
2022-08-07T09:11:24.887Z,99741.53
2022-08-07T09:14:13.550Z,99743.41
2022-08-07T09:17:01.321Z,99736.81
2022-08-07T09:19:55.207Z,99736.28
2022-08-07T09:24:33.302Z,99737.44
2022-08-07T09:25:54.246Z,99735.25
2022-08-07T09:30:01.829Z,99729.31
2022-08-07T09:31:33.711Z,99735.41
2022-08-07T09:34:21.517Z,99738.53
2022-08-07T09:37:01.695Z,99735.50
2022-08-07T09:39:54.149Z,99721.13
2022-08-07T09:42:41.853Z,99717.13
2022-08-07T09:47:27.738Z,99720.00
2022-08-07T09:48:30.144Z,99720.41
2022-08-07T09:52:15.458Z,99723.94
2022-08-07T09:54:27.179Z,99721.94
2022-08-07T09:57:46.702Z,99724.41
2022-08-07T10:00:18.783Z,99719.50
2022-08-07T10:04:14.944Z,99712.59
2022-08-07T10:07:52.880Z,99701.13
2022-08-07T10:11:07.745Z,99698.91
2022-08-07T10:13:55.588Z,99697.81
2022-08-07T10:16:54.847Z,99692.09
2022-08-07T10:19:50.145Z,99683.91
2022-08-07T10:22:50.894Z,99679.66
2022-08-07T10:25:42.832Z,99676.75
2022-08-07T10:28:37.307Z,99680.63
2022-08-07T10:31:38.973Z,99680.25
2022-08-07T10:34:32.428Z,99683.97
2022-08-07T10:37:22.332Z,99677.16
2022-08-07T10:40:08.888Z,99679.16
2022-08-07T10:42:44.014Z,99669.06
2022-08-07T10:45:45.404Z,99666.22
2022-08-07T10:48:36.173Z,99660.66
2022-08-07T10:51:16.378Z,99662.31
2022-08-07T10:53:51.896Z,99667.63
2022-08-07T10:56:37.670Z,99654.31
2022-08-07T10:59:22.193Z,99652.78
2022-08-07T11:02:05.370Z,99651.31
2022-08-07T11:05:10.592Z,99641.66
2022-08-07T11:07:58.809Z,99635.28
2022-08-07T11:10:40.513Z,99637.34
2022-08-07T11:14:46.296Z,99632.09
2022-08-07T11:16:11.284Z,99638.16
2022-08-07T11:18:51.048Z,99631.66
2022-08-07T11:21:32.980Z,99629.25
2022-08-07T11:24:21.836Z,99622.34
2022-08-07T11:27:01.205Z,99615.47
2022-08-07T11:29:42.053Z,99625.94
2022-08-07T11:32:25.348Z,99617.00
2022-08-07T11:34:58.765Z,99616.59
2022-08-07T11:38:09.964Z,99617.75
2022-08-07T11:41:00.095Z,99608.00
2022-08-07T11:43:54.981Z,99605.53
2022-08-07T11:46:40.405Z,99600.63
2022-08-07T11:50:32.321Z,99603.75
2022-08-07T11:53:05.142Z,99616.63
2022-08-07T11:56:13.983Z,99603.16
2022-08-07T11:59:02.298Z,99598.28
2022-08-07T12:01:58.662Z,99602.28
2022-08-07T12:04:58.251Z,99589.78
2022-08-07T12:07:39.098Z,99601.19
2022-08-07T12:10:20.592Z,99593.06
2022-08-07T12:13:01.819Z,99593.88
2022-08-07T12:16:05.942Z,99593.47
2022-08-07T12:18:45.461Z,99585.78
2022-08-07T12:22:38.144Z,99591.34
2022-08-07T12:24:37.663Z,99584.88
2022-08-07T12:27:16.167Z,99592.94
2022-08-07T12:29:55.086Z,99590.53
2022-08-07T12:32:32.127Z,99574.34
2022-08-07T12:35:08.275Z,99582.84
2022-08-07T12:38:09.600Z,99582.09
2022-08-07T12:40:50.048Z,99579.19
2022-08-07T12:44:02.111Z,99582.13
2022-08-07T12:46:32.400Z,99581.34
2022-08-07T12:49:25.625Z,99578.59
2022-08-07T12:52:14.681Z,99575.00
2022-08-07T12:55:03.829Z,99563.78
2022-08-07T12:57:38.938Z,99570.41
2022-08-07T13:00:49.612Z,99562.84
2022-08-07T13:04:00.508Z,99568.00
2022-08-07T13:07:10.199Z,99562.47
2022-08-07T13:10:38.104Z,99551.00
2022-08-07T13:13:48.409Z,99550.34
2022-08-07T13:16:30.762Z,99555.09
2022-08-07T13:19:11.390Z,99556.25
2022-08-07T13:22:00.609Z,99550.50
2022-08-07T13:24:52.537Z,99554.19
2022-08-07T13:28:05.930Z,99548.72
2022-08-07T13:30:40.358Z,99544.13
2022-08-07T13:34:30.740Z,99541.25
2022-08-07T13:36:18.083Z,99537.09
2022-08-07T13:38:56.953Z,99534.44
2022-08-07T13:41:35.909Z,99538.19
2022-08-07T13:44:12.882Z,99542.22
2022-08-07T13:46:49.431Z,99531.31
2022-08-07T13:50:34.239Z,99520.41
2022-08-07T13:52:27.160Z,99521.44
2022-08-07T13:55:13.191Z,99516.72
2022-08-07T13:58:02.207Z,99510.44
2022-08-07T14:00:54.321Z,99511.63
2022-08-07T14:03:29.981Z,99510.28
2022-08-07T14:06:17.710Z,99509.22
2022-08-07T14:08:53.712Z,99505.59
2022-08-07T14:11:27.970Z,99501.81
2022-08-07T14:14:17.970Z,99495.53
2022-08-07T14:16:49.848Z,99505.06
2022-08-07T14:20:40.518Z,99505.22
2022-08-07T14:22:34.141Z,99490.50
2022-08-07T14:25:11.310Z,99497.47
2022-08-07T14:30:40.740Z,99486.75
2022-08-07T14:33:10.395Z,99487.72
2022-08-07T14:35:47.509Z,99493.78
2022-08-07T14:38:31.056Z,99477.41
2022-08-07T14:41:03.840Z,99474.56
2022-08-07T14:43:58.187Z,99477.53
2022-08-07T14:46:32.049Z,99478.41
2022-08-07T14:49:56.133Z,99475.38
2022-08-07T14:52:03.368Z,99483.41
2022-08-07T14:54:43.382Z,99476.03
2022-08-07T14:57:19.477Z,99479.69
2022-08-07T15:00:03.197Z,99479.75
2022-08-07T15:05:26.988Z,99481.28
2022-08-07T15:08:00.705Z,99483.28
2022-08-07T15:10:31.987Z,99487.91
2022-08-07T15:13:04.854Z,99479.59
2022-08-07T15:15:40.724Z,99483.25
2022-08-07T15:18:33.955Z,99483.50
2022-08-07T15:21:43.936Z,99485.25
2022-08-07T15:25:16.168Z,99492.44
2022-08-07T15:27:04.952Z,99491.69
2022-08-07T15:38:29.519Z,99488.03
2022-08-07T15:41:24.235Z,99490.53
2022-08-07T15:44:05.084Z,99483.25
2022-08-07T15:46:47.388Z,99492.19
2022-08-07T15:50:04.877Z,99486.47
2022-08-07T15:52:17.168Z,99480.72
2022-08-07T15:54:51.522Z,99483.06
2022-08-07T15:57:39.267Z,99488.25
2022-08-07T16:00:31.002Z,99495.84
2022-08-07T16:03:05.808Z,99494.09
2022-08-07T16:05:36.149Z,99495.66
2022-08-07T16:08:33.055Z,99505.69
2022-08-07T16:11:26.844Z,99495.00
2022-08-07T16:14:09.057Z,99496.06
2022-08-07T16:17:02.738Z,99493.09
2022-08-07T16:20:03.933Z,99497.41
2022-08-07T16:23:09.693Z,99502.13
2022-08-07T16:25:56.606Z,99494.72
2022-08-07T16:30:07.034Z,99494.97
2022-08-07T16:31:50.950Z,99505.03
2022-08-07T16:34:39.641Z,99505.34
2022-08-07T16:38:06.070Z,99499.56
2022-08-07T16:41:04.546Z,99497.03
2022-08-07T16:44:46.191Z,99502.22
2022-08-07T16:47:45.521Z,99503.31
2022-08-07T16:51:21.012Z,99507.66
2022-08-07T16:54:19.213Z,99499.50
2022-08-07T16:57:03.231Z,99497.41
2022-08-07T16:59:51.391Z,99497.72
2022-08-07T17:02:53.432Z,99501.59
2022-08-07T17:06:19.850Z,99492.22
2022-08-07T17:09:10.861Z,99499.44
2022-08-07T17:12:01.786Z,99495.69
2022-08-07T17:14:49.572Z,99497.97
2022-08-07T17:17:46.917Z,99502.25
2022-08-07T17:20:30.886Z,99501.41
2022-08-07T17:23:13.115Z,99495.63
2022-08-07T17:25:57.266Z,99499.44
2022-08-07T17:28:35.596Z,99493.00
2022-08-07T17:31:15.618Z,99503.53
2022-08-07T17:34:18.187Z,99507.41
2022-08-07T17:36:57.660Z,99519.19
2022-08-07T17:39:58.760Z,99527.66
2022-08-07T17:42:59.066Z,99526.34
2022-08-07T17:45:35.136Z,99529.28
2022-08-07T17:48:12.757Z,99525.88
2022-08-07T17:50:58.712Z,99525.94
2022-08-07T17:54:01.272Z,99531.84
2022-08-07T17:56:49.477Z,99524.84
2022-08-07T17:59:26.674Z,99524.06
2022-08-07T18:02:15.199Z,99530.38
2022-08-07T18:04:55.168Z,99542.91
2022-08-07T18:07:43.630Z,99535.75
2022-08-07T18:10:28.635Z,99541.59
2022-08-07T18:13:40.434Z,99547.31
2022-08-07T18:16:30.792Z,99541.47
2022-08-07T18:21:07.462Z,99543.56
2022-08-07T18:22:14.964Z,99547.44
2022-08-07T18:24:51.259Z,99543.09
2022-08-07T18:27:38.562Z,99544.25
2022-08-07T18:30:31.691Z,99551.03
2022-08-07T18:34:05.018Z,99553.88
2022-08-07T18:37:14.622Z,99554.13
2022-08-07T18:40:42.592Z,99554.00
2022-08-07T18:43:14.913Z,99561.63
2022-08-07T18:46:21.810Z,99573.66
2022-08-07T18:50:05.829Z,99568.16
2022-08-07T18:52:33.922Z,99567.56
2022-08-07T18:54:50.949Z,99567.34
2022-08-07T18:57:40.681Z,99571.97
2022-08-07T19:00:34.593Z,99577.38
2022-08-07T19:03:15.796Z,99583.13
2022-08-07T19:06:03.497Z,99584.03
2022-08-07T19:08:58.846Z,99595.28
2022-08-07T19:12:04.651Z,99588.81
2022-08-07T19:15:00.553Z,99586.03
2022-08-07T19:18:01.034Z,99595.72
2022-08-07T19:21:09.697Z,99593.75
2022-08-07T19:23:59.290Z,99589.03
2022-08-07T19:26:55.563Z,99590.69
2022-08-07T19:31:05.415Z,99600.75
2022-08-07T19:32:26.031Z,99599.59
2022-08-07T19:35:03.461Z,99605.09
2022-08-07T19:37:56.562Z,99603.94
2022-08-07T19:40:30.769Z,99601.81
2022-08-07T19:43:00.978Z,99590.47
2022-08-07T19:46:04.978Z,99602.06
2022-08-07T19:48:42.605Z,99605.59
2022-08-07T19:51:20.172Z,99602.78
2022-08-07T19:54:30.988Z,99614.03
2022-08-07T19:58:00.784Z,99614.81
2022-08-07T19:59:44.093Z,99617.63
2022-08-07T20:02:19.955Z,99618.13
2022-08-07T20:04:51.968Z,99620.19
2022-08-07T20:07:47.839Z,99621.03
2022-08-07T20:10:38.365Z,99631.44
2022-08-07T20:13:27.044Z,99622.19
2022-08-07T20:16:03.973Z,99617.38
2022-08-07T20:18:35.828Z,99621.03
2022-08-07T20:21:20.966Z,99622.19
2022-08-07T20:23:57.798Z,99620.94
2022-08-07T20:26:44.858Z,99615.66
2022-08-07T20:29:47.901Z,99612.38
2022-08-07T20:32:11.593Z,99611.09
2022-08-07T20:34:55.967Z,99614.25
2022-08-07T20:37:34.155Z,99603.34
2022-08-07T20:40:32.951Z,99615.41
2022-08-07T20:43:09.474Z,99610.53
2022-08-07T20:46:26.439Z,99620.47
2022-08-07T20:48:37.418Z,99608.78
2022-08-07T20:51:09.622Z,99613.56
2022-08-07T20:54:03.458Z,99609.13
2022-08-07T20:56:34.968Z,99608.66
2022-08-07T21:00:05.565Z,99614.63
2022-08-07T21:01:58.380Z,99617.78
2022-08-07T21:04:31.733Z,99620.13
2022-08-07T21:07:03.928Z,99623.28
2022-08-07T21:09:52.453Z,99625.63
2022-08-07T21:12:31.569Z,99633.13
2022-08-07T21:15:08.029Z,99642.25
2022-08-07T21:18:28.104Z,99633.38
2022-08-07T21:20:30.389Z,99637.56
2022-08-07T21:23:08.929Z,99630.19
2022-08-07T21:26:01.382Z,99634.84
2022-08-07T21:28:48.362Z,99630.75
2022-08-07T21:31:31.423Z,99629.13
2022-08-07T21:34:32.334Z,99630.63
2022-08-07T21:37:08.826Z,99639.06
2022-08-07T21:39:51.489Z,99634.13
2022-08-07T21:42:42.391Z,99631.69
2022-08-07T21:46:09.179Z,99634.81
2022-08-07T21:48:34.411Z,99641.63
2022-08-07T21:51:19.409Z,99635.19
2022-08-07T21:53:54.165Z,99632.38
2022-08-07T21:56:40.195Z,99633.06
2022-08-07T21:59:36.311Z,99626.97
2022-08-07T22:02:31.061Z,99631.44
2022-08-07T22:05:04.667Z,99632.22
2022-08-07T22:07:59.452Z,99631.78
2022-08-07T22:10:32.828Z,99632.59
2022-08-07T22:13:09.169Z,99629.78
2022-08-07T22:16:43.355Z,99629.44
2022-08-07T22:18:44.245Z,99621.13
2022-08-07T22:21:20.633Z,99624.78
2022-08-07T22:23:58.122Z,99617.97
2022-08-07T22:26:44.242Z,99618.44
2022-08-07T22:29:38.025Z,99617.66
2022-08-07T22:32:25.457Z,99616.47
2022-08-07T22:34:57.341Z,99628.50
2022-08-07T22:38:03.888Z,99634.50
2022-08-07T22:40:42.196Z,99630.50
2022-08-07T22:43:13.589Z,99630.16
2022-08-07T22:46:42.727Z,99623.25
2022-08-07T22:49:19.111Z,99624.41
2022-08-07T22:52:06.947Z,99624.41
2022-08-07T22:55:17.320Z,99626.75
2022-08-07T22:58:34.301Z,99623.81
2022-08-07T23:01:49.696Z,99618.56
2022-08-07T23:06:10.235Z,99625.34
2022-08-07T23:07:59.405Z,99618.91
2022-08-07T23:10:43.235Z,99616.44
2022-08-07T23:13:48.860Z,99609.56
2022-08-07T23:16:55.896Z,99605.47
2022-08-07T23:19:57.761Z,99610.72
2022-08-07T23:22:45.444Z,99597.72
2022-08-07T23:25:29.585Z,99605.69
2022-08-07T23:28:37.688Z,99615.47
2022-08-07T23:32:49.188Z,99607.78
2022-08-07T23:34:52.860Z,99608.00
2022-08-07T23:38:19.402Z,99607.38
2022-08-07T23:41:32.992Z,99603.28
2022-08-07T23:44:35.106Z,99609.16
2022-08-07T23:47:47.805Z,99609.81
2022-08-07T23:50:37.342Z,99612.16
2022-08-07T23:53:49.724Z,99610.47
2022-08-07T23:56:27.621Z,99609.34
2022-08-07T23:59:10.819Z,99604.88
